Time;durP1;ratioP1;P1;durP2;ratioP2;P2;SDS_P1;SDS_P2;PMS_P1;PMS_P2;Temp;Humidity;BMP_temperature;BMP_pressure;BME280_temperature;BME280_humidity;BME280_pressure;Samples;Min_cycle;Max_cycle;Signal;HPM_P1;HPM_P2
2024/03/11 00:01:51;;;;;;;4.23;1.60;;;;;;;;;;4982310;28;87053;-47
2024/03/11 00:04:16;;;;;;;1.67;1.07;;;;;;;;;;4983008;28;86846;-47
2024/03/11 00:06:44;;;;;;;2.03;1.60;;;;;;;;;;4983890;28;86196;-47
2024/03/11 00:09:19;;;;;;;2.35;1.33;;;;;;;;;;4982196;28;87782;-46
2024/03/11 00:11:48;;;;;;;4.10;1.65;;;;;;;;;;4987284;28;87820;-47
2024/03/11 00:14:16;;;;;;;2.67;1.10;;;;;;;;;;4983001;28;88069;-46
2024/03/11 00:16:42;;;;;;;2.15;1.60;;;;;;;;;;4982456;28;86894;-46
2024/03/11 00:19:08;;;;;;;3.93;1.60;;;;;;;;;;4982537;28;86870;-47
2024/03/11 00:21:33;;;;;;;2.90;1.45;;;;;;;;;;4983318;28;87604;-47
2024/03/11 00:23:58;;;;;;;1.97;1.10;;;;;;;;;;4982670;28;87566;-47
2024/03/11 00:26:24;;;;;;;3.60;1.77;;;;;;;;;;4984610;28;86734;-49
2024/03/11 00:28:50;;;;;;;5.65;1.40;;;;;;;;;;4984450;28;87013;-47
2024/03/11 00:31:15;;;;;;;2.30;0.97;;;;;;;;;;4983775;28;88450;-47
2024/03/11 00:33:40;;;;;;;1.90;1.30;;;;;;;;;;4986257;28;87237;-47
2024/03/11 00:36:06;;;;;;;2.37;1.20;;;;;;;;;;4983891;28;86879;-47
2024/03/11 00:38:32;;;;;;;3.20;1.40;;;;;;;;;;4982373;28;87939;-47
2024/03/11 00:40:58;;;;;;;4.50;1.47;;;;;;;;;;4983056;28;88645;-46
2024/03/11 00:43:24;;;;;;;2.55;1.02;;;;;;;;;;4982665;28;87536;-46
2024/03/11 00:45:49;;;;;;;3.60;1.33;;;;;;;;;;4983378;28;86884;-47
2024/03/11 00:48:14;;;;;;;3.63;1.50;;;;;;;;;;4983213;28;86997;-47
2024/03/11 00:50:39;;;;;;;2.55;1.38;;;;;;;;;;4982574;28;87607;-47
2024/03/11 00:53:05;;;;;;;3.57;0.90;;;;;;;;;;4986056;28;87156;-49
2024/03/11 00:55:30;;;;;;;1.57;1.10;;;;;;;;;;4983106;28;86427;-47
2024/03/11 00:57:55;;;;;;;2.67;1.30;;;;;;;;;;4983046;28;86864;-47
2024/03/11 01:00:22;;;;;;;5.00;1.60;;;;;;;;;;4985693;28;87492;-47
2024/03/11 01:02:49;;;;;;;3.85;1.45;;;;;;;;;;4985028;28;88302;-46
2024/03/11 01:05:14;;;;;;;2.13;1.30;;;;;;;;;;4985828;28;87029;-50
2024/03/11 01:07:39;;;;;;;2.67;1.50;;;;;;;;;;4985692;28;86869;-46
2024/03/11 01:10:05;;;;;;;3.87;1.70;;;;;;;;;;4985551;28;86767;-49
2024/03/11 01:12:30;;;;;;;4.83;1.43;;;;;;;;;;4984905;28;87232;-47
2024/03/11 01:14:55;;;;;;;1.83;1.43;;;;;;;;;;4988746;28;86900;-47
2024/03/11 01:17:20;;;;;;;2.97;1.48;;;;;;;;;;4986018;28;87018;-47
2024/03/11 01:19:47;;;;;;;3.27;1.50;;;;;;;;;;4984196;28;89803;-46
2024/03/11 01:22:12;;;;;;;2.47;1.52;;;;;;;;;;4985867;28;87519;-48
2024/03/11 01:24:38;;;;;;;4.57;1.13;;;;;;;;;;4984986;28;87294;-47
2024/03/11 01:27:10;;;;;;;2.35;1.45;;;;;;;;;;4985595;28;87845;-48
2024/03/11 01:29:38;;;;;;;2.70;1.52;;;;;;;;;;4986368;28;87586;-46
2024/03/11 01:32:03;;;;;;;1.58;1.25;;;;;;;;;;4985122;28;86944;-48
2024/03/11 01:34:29;;;;;;;2.07;1.40;;;;;;;;;;4985546;28;87330;-46
2024/03/11 01:36:54;;;;;;;1.67;1.00;;;;;;;;;;4988482;28;87351;-46
2024/03/11 01:39:25;;;;;;;3.57;1.53;;;;;;;;;;4984718;28;87002;-48
2024/03/11 01:41:51;;;;;;;2.17;1.42;;;;;;;;;;4985475;28;87585;-46
2024/03/11 01:44:17;;;;;;;1.90;1.27;;;;;;;;;;4984771;28;86349;-46
2024/03/11 01:46:44;;;;;;;3.33;1.60;;;;;;;;;;4985015;28;86770;-47
2024/03/11 01:49:11;;;;;;;1.80;1.23;;;;;;;;;;4984447;28;87617;-46
2024/03/11 01:51:37;;;;;;;2.45;1.20;;;;;;;;;;4983509;28;88178;-47
2024/03/11 01:54:03;;;;;;;3.28;1.27;;;;;;;;;;4983927;28;88270;-46
2024/03/11 01:56:28;;;;;;;1.70;1.10;;;;;;;;;;4983838;28;87683;-46
2024/03/11 01:58:56;;;;;;;2.30;1.20;;;;;;;;;;4987107;28;86991;-46
2024/03/11 02:01:22;;;;;;;2.07;1.00;;;;;;;;;;4983705;28;87383;-49
2024/03/11 02:03:48;;;;;;;2.87;1.33;;;;;;;;;;4984230;28;86786;-47
2024/03/11 02:06:13;;;;;;;4.97;0.93;;;;;;;;;;4984683;28;87049;-46
2024/03/11 02:08:39;;;;;;;1.50;0.93;;;;;;;;;;4983448;28;86722;-46
2024/03/11 02:11:04;;;;;;;2.57;1.23;;;;;;;;;;4983147;28;86821;-46
2024/03/11 02:13:32;;;;;;;1.07;0.97;;;;;;;;;;4982998;28;87044;-46
2024/03/11 02:15:58;;;;;;;2.03;0.97;;;;;;;;;;4982863;28;88022;-47
2024/03/11 02:18:24;;;;;;;1.70;1.27;;;;;;;;;;4984548;28;87157;-47
2024/03/11 02:20:49;;;;;;;2.23;1.10;;;;;;;;;;4986608;28;86820;-46
2024/03/11 02:23:14;;;;;;;3.73;1.40;;;;;;;;;;4983201;28;87057;-47
2024/03/11 02:25:39;;;;;;;4.27;1.60;;;;;;;;;;4985252;28;86983;-47
2024/03/11 02:28:05;;;;;;;1.40;1.03;;;;;;;;;;4984117;28;87611;-47
2024/03/11 02:30:30;;;;;;;2.70;1.10;;;;;;;;;;4984217;28;87228;-48
2024/03/11 02:32:56;;;;;;;2.80;1.47;;;;;;;;;;4983766;28;86118;-46
2024/03/11 02:35:21;;;;;;;2.50;1.23;;;;;;;;;;4983628;28;88462;-46
2024/03/11 02:37:46;;;;;;;1.90;1.20;;;;;;;;;;4983538;28;86891;-46
2024/03/11 02:40:13;;;;;;;1.90;1.10;;;;;;;;;;4981794;28;90622;-47
2024/03/11 02:42:39;;;;;;;5.22;1.70;;;;;;;;;;4985863;28;89429;-46
2024/03/11 02:45:06;;;;;;;1.83;0.93;;;;;;;;;;4984132;28;86927;-46
2024/03/11 02:47:32;;;;;;;1.67;1.13;;;;;;;;;;4984134;28;86807;-48
2024/03/11 02:49:57;;;;;;;2.87;1.40;;;;;;;;;;4984786;28;86962;-46
2024/03/11 02:52:22;;;;;;;2.03;1.00;;;;;;;;;;4983795;28;86996;-46
2024/03/11 02:54:53;;;;;;;1.97;1.20;;;;;;;;;;4983895;28;88702;-47
2024/03/11 02:57:18;;;;;;;1.60;1.20;;;;;;;;;;4985179;28;86172;-46
2024/03/11 02:59:43;;;;;;;3.30;1.10;;;;;;;;;;4983601;28;87028;-47
2024/03/11 03:02:09;;;;;;;0.87;0.67;;;;;;;;;;4986213;28;87456;-48
2024/03/11 03:04:34;;;;;;;1.60;0.80;;;;;;;;;;4982435;28;87892;-47
2024/03/11 03:07:00;;;;;;;1.17;0.87;;;;;;;;;;4982925;28;86761;-46
2024/03/11 03:09:25;;;;;;;3.70;1.00;;;;;;;;;;4983699;28;86991;-47
2024/03/11 03:11:51;;;;;;;1.57;0.90;;;;;;;;;;4984429;28;87287;-47
2024/03/11 03:14:16;;;;;;;2.10;0.98;;;;;;;;;;4982459;28;88850;-48
2024/03/11 03:16:41;;;;;;;2.17;1.00;;;;;;;;;;4983134;28;86912;-46
2024/03/11 03:19:06;;;;;;;3.05;1.02;;;;;;;;;;4983374;28;87238;-46
2024/03/11 03:21:32;;;;;;;3.20;1.23;;;;;;;;;;4982868;28;87266;-47
2024/03/11 03:23:57;;;;;;;1.60;1.00;;;;;;;;;;4986179;28;86970;-47
2024/03/11 03:26:24;;;;;;;0.93;0.83;;;;;;;;;;4982575;28;87310;-49
2024/03/11 03:28:49;;;;;;;1.30;1.00;;;;;;;;;;4982080;28;87872;-47
2024/03/11 03:31:14;;;;;;;1.60;0.93;;;;;;;;;;4981512;28;88475;-46
2024/03/11 03:33:39;;;;;;;2.97;1.23;;;;;;;;;;4983608;28;87429;-47
2024/03/11 03:36:05;;;;;;;1.33;0.63;;;;;;;;;;4983773;28;86806;-48
2024/03/11 03:38:33;;;;;;;2.90;1.13;;;;;;;;;;4985250;28;86770;-46
2024/03/11 03:40:58;;;;;;;2.22;0.93;;;;;;;;;;4983295;28;87628;-48
2024/03/11 03:43:23;;;;;;;1.33;0.83;;;;;;;;;;4983162;28;87135;-46
2024/03/11 03:45:49;;;;;;;2.30;1.20;;;;;;;;;;4986568;28;87258;-47
2024/03/11 03:48:14;;;;;;;1.33;1.20;;;;;;;;;;4982642;28;86768;-47
2024/03/11 03:50:39;;;;;;;2.40;0.80;;;;;;;;;;4983454;28;86819;-47
2024/03/11 03:53:04;;;;;;;0.80;0.73;;;;;;;;;;4982266;28;87811;-47
2024/03/11 03:55:30;;;;;;;2.03;0.90;;;;;;;;;;4983256;28;86974;-47
2024/03/11 03:57:55;;;;;;;1.13;0.90;;;;;;;;;;4981902;28;87356;-49
2024/03/11 04:00:20;;;;;;;3.43;1.27;;;;;;;;;;4982526;28;86907;-48
2024/03/11 04:02:47;;;;;;;0.50;0.47;;;;;;;;;;4982402;28;86923;-48
2024/03/11 04:05:13;;;;;;;0.88;0.80;;;;;;;;;;4982812;28;87441;-47
2024/03/11 04:07:41;;;;;;;2.97;1.15;;;;;;;;;;4985578;28;86757;-46
2024/03/11 04:10:06;;;;;;;1.00;0.80;;;;;;;;;;4983052;28;87054;-45
2024/03/11 04:12:32;;;;;;;2.92;0.80;;;;;;;;;;4982996;28;86747;-49
2024/03/11 04:14:58;;;;;;;1.30;0.90;;;;;;;;;;4982621;28;87328;-47
2024/03/11 04:17:23;;;;;;;2.77;1.17;;;;;;;;;;4981808;28;87683;-47
2024/03/11 04:19:49;;;;;;;1.67;0.80;;;;;;;;;;4983344;28;87508;-47
2024/03/11 04:22:14;;;;;;;1.20;0.80;;;;;;;;;;4982493;28;87276;-46
2024/03/11 04:24:39;;;;;;;1.80;0.70;;;;;;;;;;4984350;28;87151;-48
2024/03/11 04:27:05;;;;;;;2.63;1.20;;;;;;;;;;4984046;28;86751;-47
2024/03/11 04:29:30;;;;;;;2.25;0.77;;;;;;;;;;4986783;28;86747;-48
2024/03/11 04:31:57;;;;;;;1.95;0.77;;;;;;;;;;4984733;28;87473;-48
2024/03/11 04:34:23;;;;;;;0.85;0.57;;;;;;;;;;4985837;28;86164;-48
2024/03/11 04:36:48;;;;;;;2.27;1.13;;;;;;;;;;4983776;28;86921;-49
2024/03/11 04:39:14;;;;;;;1.10;0.60;;;;;;;;;;4983535;28;86740;-47
2024/03/11 04:41:42;;;;;;;1.40;0.50;;;;;;;;;;4982714;28;87819;-46
2024/03/11 04:44:07;;;;;;;2.70;0.88;;;;;;;;;;4982928;28;88168;-48
2024/03/11 04:46:32;;;;;;;2.33;0.70;;;;;;;;;;4982149;28;88520;-46
2024/03/11 04:48:58;;;;;;;1.03;0.60;;;;;;;;;;4982725;28;87112;-47
2024/03/11 04:51:23;;;;;;;1.47;1.03;;;;;;;;;;4986014;28;87242;-47
2024/03/11 04:53:49;;;;;;;1.17;0.70;;;;;;;;;;4981228;28;86877;-47
2024/03/11 04:56:15;;;;;;;0.67;0.67;;;;;;;;;;4984330;28;86945;-46
2024/03/11 04:58:40;;;;;;;0.82;0.50;;;;;;;;;;4984354;28;86222;-46
2024/03/11 05:01:06;;;;;;;1.97;0.73;;;;;;;;;;4984306;28;87297;-47
2024/03/11 05:03:31;;;;;;;1.90;0.67;;;;;;;;;;4983118;28;87147;-48
2024/03/11 05:05:57;;;;;;;0.73;0.60;;;;;;;;;;4981478;28;88689;-46
2024/03/11 05:08:22;;;;;;;1.20;0.80;;;;;;;;;;4982780;28;86786;-46
2024/03/11 05:10:47;;;;;;;0.80;0.60;;;;;;;;;;4985245;28;86906;-48
2024/03/11 05:13:14;;;;;;;2.23;0.73;;;;;;;;;;4982278;28;86766;-48
2024/03/11 05:15:39;;;;;;;0.93;0.45;;;;;;;;;;4982685;28;87272;-48
2024/03/11 05:18:04;;;;;;;1.50;0.90;;;;;;;;;;4983680;28;86800;-47
2024/03/11 05:20:30;;;;;;;2.42;0.77;;;;;;;;;;4983309;28;88100;-48
2024/03/11 05:22:56;;;;;;;0.80;0.60;;;;;;;;;;4983460;28;86179;-48
2024/03/11 05:25:21;;;;;;;1.35;0.45;;;;;;;;;;4982308;28;87570;-47
2024/03/11 05:27:48;;;;;;;1.33;0.70;;;;;;;;;;4981079;28;86917;-46
2024/03/11 05:30:13;;;;;;;0.85;0.65;;;;;;;;;;4981006;28;87623;-47
2024/03/11 05:32:40;;;;;;;1.70;0.90;;;;;;;;;;4984824;28;88566;-49
2024/03/11 05:35:05;;;;;;;0.82;0.50;;;;;;;;;;4982700;28;87277;-46
2024/03/11 05:37:33;;;;;;;1.63;0.97;;;;;;;;;;4982817;28;87469;-45
2024/03/11 05:40:05;;;;;;;0.68;0.57;;;;;;;;;;4982538;28;87693;-46
2024/03/11 05:42:31;;;;;;;1.80;0.60;;;;;;;;;;4982662;28;87185;-45
2024/03/11 05:44:58;;;;;;;1.10;0.70;;;;;;;;;;4985058;28;88542;-46
2024/03/11 05:47:25;;;;;;;1.05;0.55;;;;;;;;;;4986024;28;86185;-46
2024/03/11 05:49:51;;;;;;;1.27;0.52;;;;;;;;;;4985638;28;87227;-49
2024/03/11 05:52:17;;;;;;;1.57;0.83;;;;;;;;;;4983594;28;87435;-46
2024/03/11 05:54:50;;;;;;;1.00;0.40;;;;;;;;;;4987758;28;87907;-46
2024/03/11 05:57:22;;;;;;;1.90;0.40;;;;;;;;;;4985585;28;87238;-46
2024/03/11 05:59:47;;;;;;;1.40;0.52;;;;;;;;;;4986148;28;86932;-46
2024/03/11 06:02:13;;;;;;;0.80;0.47;;;;;;;;;;4985851;28;87090;-46
2024/03/11 06:04:38;;;;;;;1.10;0.70;;;;;;;;;;4987210;28;86761;-47
2024/03/11 06:07:03;;;;;;;6.57;0.70;;;;;;;;;;4987228;28;87615;-48
2024/03/11 06:09:28;;;;;;;1.30;0.50;;;;;;;;;;4985761;28;87375;-46
2024/03/11 06:11:54;;;;;;;1.07;0.50;;;;;;;;;;4984624;28;89536;-49
2024/03/11 06:14:19;;;;;;;9.70;2.10;;;;;;;;;;4986506;28;87094;-46
2024/03/11 06:16:45;;;;;;;2.23;0.60;;;;;;;;;;4986619;28;88971;-53
2024/03/11 06:19:11;;;;;;;1.60;0.50;;;;;;;;;;4985076;28;87967;-46
2024/03/11 06:21:37;;;;;;;1.75;0.75;;;;;;;;;;4983083;28;88119;-46
2024/03/11 06:24:02;;;;;;;2.55;0.50;;;;;;;;;;4982306;28;87277;-45
2024/03/11 06:26:28;;;;;;;0.90;0.70;;;;;;;;;;4984429;28;87177;-47
2024/03/11 06:28:55;;;;;;;4.77;0.50;;;;;;;;;;4986043;28;87382;-46
2024/03/11 06:31:21;;;;;;;0.93;0.47;;;;;;;;;;4985804;28;87461;-49
2024/03/11 06:33:50;;;;;;;2.05;0.73;;;;;;;;;;4985339;28;86843;-46
2024/03/11 06:36:16;;;;;;;1.00;0.50;;;;;;;;;;4984640;28;86149;-46
2024/03/11 06:38:42;;;;;;;0.70;0.50;;;;;;;;;;4987373;28;87089;-46
2024/03/11 06:41:08;;;;;;;1.33;0.60;;;;;;;;;;4984597;28;87346;-46
2024/03/11 06:43:33;;;;;;;2.20;0.53;;;;;;;;;;4982756;28;87799;-46
2024/03/11 06:45:58;;;;;;;1.50;0.40;;;;;;;;;;4983866;28;86854;-47
2024/03/11 06:48:23;;;;;;;0.40;0.30;;;;;;;;;;4984404;28;86748;-47
2024/03/11 06:50:49;;;;;;;1.00;0.40;;;;;;;;;;4982898;28;86753;-47
2024/03/11 06:53:14;;;;;;;2.53;0.43;;;;;;;;;;4983942;28;86778;-47
2024/03/11 06:55:39;;;;;;;0.70;0.50;;;;;;;;;;4983258;28;87320;-47
2024/03/11 06:58:05;;;;;;;0.20;0.20;;;;;;;;;;4984602;28;87260;-46
2024/03/11 07:00:30;;;;;;;0.40;0.30;;;;;;;;;;4987776;28;86073;-47
2024/03/11 07:02:56;;;;;;;0.50;0.40;;;;;;;;;;4984524;28;86789;-46
2024/03/11 07:05:26;;;;;;;0.93;0.43;;;;;;;;;;4985965;28;86740;-47
2024/03/11 07:07:51;;;;;;;0.43;0.38;;;;;;;;;;4984718;28;88087;-47
2024/03/11 07:10:17;;;;;;;3.60;0.30;;;;;;;;;;4984838;28;86849;-47
2024/03/11 07:12:42;;;;;;;0.60;0.50;;;;;;;;;;4985983;28;86971;-47
2024/03/11 07:15:09;;;;;;;1.60;0.60;;;;;;;;;;4985637;28;86947;-47
2024/03/11 07:17:34;;;;;;;1.00;0.40;;;;;;;;;;4985668;28;87488;-46
2024/03/11 07:19:59;;;;;;;0.60;0.43;;;;;;;;;;4987920;28;86593;-47
2024/03/11 07:22:24;;;;;;;3.53;0.43;;;;;;;;;;4984787;28;87347;-46
2024/03/11 07:24:53;;;;;;;0.73;0.33;;;;;;;;;;4984981;28;86884;-46
2024/03/11 07:27:18;;;;;;;0.43;0.43;;;;;;;;;;4985922;28;86816;-46
2024/03/11 07:29:43;;;;;;;1.00;0.40;;;;;;;;;;4985385;28;86968;-47
2024/03/11 07:32:11;;;;;;;0.50;0.37;;;;;;;;;;4985771;28;87887;-46
2024/03/11 07:34:39;;;;;;;0.20;0.00;;;;;;;;;;4986341;28;87103;-47
2024/03/11 07:37:05;;;;;;;0.97;0.30;;;;;;;;;;4986063;28;87015;-47
2024/03/11 07:39:30;;;;;;;0.22;0.20;;;;;;;;;;4985165;28;86824;-47
2024/03/11 07:41:56;;;;;;;2.00;0.57;;;;;;;;;;4988115;28;87766;-47
2024/03/11 07:44:22;;;;;;;0.90;0.50;;;;;;;;;;4985234;28;86762;-47
2024/03/11 07:46:47;;;;;;;1.98;1.10;;;;;;;;;;4984995;28;88433;-47
2024/03/11 07:49:12;;;;;;;2.13;0.73;;;;;;;;;;4984916;28;86055;-47
2024/03/11 07:51:37;;;;;;;0.70;0.30;;;;;;;;;;4982028;28;87074;-47
2024/03/11 07:54:03;;;;;;;2.77;0.50;;;;;;;;;;4986137;28;86917;-48
2024/03/11 07:56:28;;;;;;;0.83;0.60;;;;;;;;;;4985915;28;87552;-47
2024/03/11 07:58:53;;;;;;;0.90;0.40;;;;;;;;;;4987081;28;86922;-48
2024/03/11 08:01:21;;;;;;;0.80;0.20;;;;;;;;;;4986485;28;86936;-48
2024/03/11 08:03:46;;;;;;;1.60;0.50;;;;;;;;;;4988918;28;87130;-48
2024/03/11 08:06:11;;;;;;;0.47;0.30;;;;;;;;;;4983247;28;87292;-48
2024/03/11 08:08:37;;;;;;;0.73;0.40;;;;;;;;;;4985513;28;87493;-47
2024/03/11 08:11:02;;;;;;;1.00;0.40;;;;;;;;;;4985754;28;86852;-47
2024/03/11 08:13:27;;;;;;;1.00;0.43;;;;;;;;;;4984107;28;89698;-48
2024/03/11 08:15:53;;;;;;;0.40;0.30;;;;;;;;;;4986079;28;86558;-48
2024/03/11 08:18:19;;;;;;;1.23;0.90;;;;;;;;;;4984918;28;87325;-47
2024/03/11 08:20:44;;;;;;;0.70;0.32;;;;;;;;;;4983197;28;87752;-47
2024/03/11 08:23:10;;;;;;;3.10;0.37;;;;;;;;;;4983947;28;87423;-47
2024/03/11 08:25:35;;;;;;;2.27;0.30;;;;;;;;;;4986715;28;86735;-49
2024/03/11 08:28:00;;;;;;;0.83;0.30;;;;;;;;;;4984771;28;88108;-47
2024/03/11 08:30:30;;;;;;;5.07;0.70;;;;;;;;;;4985525;28;86835;-48
2024/03/11 08:32:59;;;;;;;0.47;0.32;;;;;;;;;;4985371;28;87281;-47
2024/03/11 08:35:25;;;;;;;0.13;0.13;;;;;;;;;;4984285;28;89019;-48
2024/03/11 08:37:50;;;;;;;2.15;0.80;;;;;;;;;;4985169;28;86166;-47
2024/03/11 08:40:16;;;;;;;0.10;0.10;;;;;;;;;;4983107;28;87737;-47
2024/03/11 08:42:45;;;;;;;0.55;0.30;;;;;;;;;;4985046;28;86768;-49
2024/03/11 08:45:17;;;;;;;0.52;0.20;;;;;;;;;;4983085;28;87900;-48
2024/03/11 08:47:43;;;;;;;0.63;0.22;;;;;;;;;;4988884;28;87064;-49
2024/03/11 08:50:10;;;;;;;0.40;0.28;;;;;;;;;;4984892;28;86957;-47
2024/03/11 08:52:35;;;;;;;0.85;0.40;;;;;;;;;;4985819;28;87191;-47
2024/03/11 08:55:05;;;;;;;0.60;0.40;;;;;;;;;;4983134;28;87869;-51
2024/03/11 08:57:30;;;;;;;0.60;0.20;;;;;;;;;;4986149;28;86916;-47
2024/03/11 08:59:55;;;;;;;0.00;0.00;;;;;;;;;;4986177;28;86975;-47
2024/03/11 09:02:21;;;;;;;0.53;0.33;;;;;;;;;;4986258;28;86850;-50
2024/03/11 09:04:46;;;;;;;0.43;0.40;;;;;;;;;;4984574;28;87016;-48
2024/03/11 09:07:12;;;;;;;0.70;0.20;;;;;;;;;;4986576;28;86968;-47
2024/03/11 09:09:37;;;;;;;2.50;0.20;;;;;;;;;;4983253;28;87804;-47
2024/03/11 09:12:02;;;;;;;0.60;0.30;;;;;;;;;;4984654;28;87192;-48
2024/03/11 09:14:31;;;;;;;2.70;0.20;;;;;;;;;;4984206;28;87746;-47
2024/03/11 09:17:00;;;;;;;1.20;0.30;;;;;;;;;;4984602;28;86791;-48
2024/03/11 09:19:25;;;;;;;0.17;0.10;;;;;;;;;;4986454;28;87306;-48
2024/03/11 09:21:51;;;;;;;1.00;0.60;;;;;;;;;;4987326;28;87011;-47
2024/03/11 09:24:17;;;;;;;0.15;0.15;;;;;;;;;;4989151;28;86767;-48
2024/03/11 09:26:43;;;;;;;0.30;0.20;;;;;;;;;;4988990;28;86317;-49
2024/03/11 09:29:09;;;;;;;1.08;0.30;;;;;;;;;;4991093;28;86872;-47
2024/03/11 09:31:35;;;;;;;0.20;0.20;;;;;;;;;;4988701;28;86908;-47
2024/03/11 09:34:02;;;;;;;0.47;0.30;;;;;;;;;;4988251;28;87935;-47
2024/03/11 09:36:28;;;;;;;0.35;0.20;;;;;;;;;;4988388;28;86936;-50
2024/03/11 09:38:53;;;;;;;0.33;0.33;;;;;;;;;;4989596;28;86880;-48
2024/03/11 09:41:19;;;;;;;0.20;0.20;;;;;;;;;;4988813;28;87494;-46
2024/03/11 09:43:48;;;;;;;0.50;0.30;;;;;;;;;;4987639;28;86878;-47
2024/03/11 09:46:20;;;;;;;0.38;0.30;;;;;;;;;;4987446;28;87386;-47
2024/03/11 09:48:53;;;;;;;0.73;0.40;;;;;;;;;;4987490;28;89156;-47
2024/03/11 09:51:21;;;;;;;0.20;0.20;;;;;;;;;;4991663;28;86310;-47
2024/03/11 09:53:52;;;;;;;1.70;0.28;;;;;;;;;;4986199;28;110713;-48
2024/03/11 09:56:18;;;;;;;0.37;0.13;;;;;;;;;;4989745;28;87011;-47
2024/03/11 09:58:46;;;;;;;0.30;0.30;;;;;;;;;;4989751;28;87725;-49
2024/03/11 10:01:11;;;;;;;0.20;0.20;;;;;;;;;;4987286;28;88716;-49
2024/03/11 10:03:37;;;;;;;0.10;0.10;;;;;;;;;;4986288;28;86888;-47
2024/03/11 10:06:04;;;;;;;1.10;0.40;;;;;;;;;;4987781;28;87184;-47
2024/03/11 10:08:31;;;;;;;0.67;0.43;;;;;;;;;;4988516;28;87526;-49
2024/03/11 10:11:14;;;;;;;0.60;0.40;;;;;;;;;;4987228;28;86955;-47
2024/03/11 10:13:40;;;;;;;1.90;0.30;;;;;;;;;;4991119;28;87247;-49
2024/03/11 10:16:10;;;;;;;0.57;0.30;;;;;;;;;;4987231;28;86020;-51
2024/03/11 10:18:36;;;;;;;0.57;0.57;;;;;;;;;;4987232;28;86488;-47
2024/03/11 10:21:01;;;;;;;2.22;0.45;;;;;;;;;;4984675;28;89165;-49
2024/03/11 10:23:27;;;;;;;10.20;0.63;;;;;;;;;;4985452;28;87792;-52
2024/03/11 10:26:12;;;;;;;1.45;0.68;;;;;;;;;;4987121;28;88096;-48
2024/03/11 10:28:38;;;;;;;0.77;0.32;;;;;;;;;;4985215;28;86937;-49
2024/03/11 10:31:18;;;;;;;3.00;0.77;;;;;;;;;;4984876;28;86954;-46
2024/03/11 10:33:43;;;;;;;1.60;0.57;;;;;;;;;;4985423;28;87366;-46
2024/03/11 10:36:09;;;;;;;2.67;0.90;;;;;;;;;;4986982;28;87617;-47
2024/03/11 10:38:38;;;;;;;2.20;1.00;;;;;;;;;;4986326;28;87285;-48
2024/03/11 10:41:20;;;;;;;8.70;1.57;;;;;;;;;;4985482;28;86361;-50
2024/03/11 10:43:46;;;;;;;9.55;1.33;;;;;;;;;;4985985;28;87211;-47
2024/03/11 10:46:22;;;;;;;21.57;2.63;;;;;;;;;;4986205;28;86896;-46
2024/03/11 10:48:48;;;;;;;10.05;1.90;;;;;;;;;;4985143;28;88450;-46
2024/03/11 10:51:19;;;;;;;32.83;3.42;;;;;;;;;;4985833;28;86837;-48
2024/03/11 10:53:44;;;;;;;27.35;4.03;;;;;;;;;;4985081;28;87248;-47
2024/03/11 10:56:11;;;;;;;40.40;5.63;;;;;;;;;;4985651;28;86938;-47
2024/03/11 10:58:39;;;;;;;28.35;5.50;;;;;;;;;;4987971;28;86807;-48
2024/03/11 11:01:05;;;;;;;28.00;5.73;;;;;;;;;;4984383;28;87557;-49
2024/03/11 11:03:31;;;;;;;28.42;5.10;;;;;;;;;;4984839;28;87192;-47
2024/03/11 11:05:56;;;;;;;16.95;5.32;;;;;;;;;;4985431;28;86087;-47
2024/03/11 11:08:29;;;;;;;20.07;4.13;;;;;;;;;;4984489;28;86868;-47
2024/03/11 11:10:57;;;;;;;27.65;5.78;;;;;;;;;;4984339;28;86726;-51
2024/03/11 11:13:24;;;;;;;16.17;5.35;;;;;;;;;;4985233;28;87821;-46
2024/03/11 11:15:50;;;;;;;24.07;4.40;;;;;;;;;;4984360;28;86814;-47
2024/03/11 11:18:17;;;;;;;33.42;4.07;;;;;;;;;;4986604;28;86951;-50
2024/03/11 11:20:49;;;;;;;23.48;4.95;;;;;;;;;;4982969;28;86829;-47
2024/03/11 11:23:27;;;;;;;35.60;5.15;;;;;;;;;;4983613;28;86712;-47
2024/03/11 11:25:56;;;;;;;26.83;4.40;;;;;;;;;;4984087;28;87349;-48
2024/03/11 11:28:25;;;;;;;13.02;5.25;;;;;;;;;;4983903;28;86916;-46
2024/03/11 11:31:11;;;;;;;20.58;4.45;;;;;;;;;;4984901;28;86193;-47
2024/03/11 11:34:01;;;;;;;17.15;4.53;;;;;;;;;;4986619;28;86792;-47
2024/03/11 11:36:33;;;;;;;20.63;4.43;;;;;;;;;;4984145;28;87848;-49
2024/03/11 11:39:13;;;;;;;18.27;4.65;;;;;;;;;;4983577;28;87904;-48
2024/03/11 11:41:40;;;;;;;24.38;3.80;;;;;;;;;;4985617;28;86955;-47
2024/03/11 11:44:07;;;;;;;21.67;3.83;;;;;;;;;;4982581;28;87292;-46
2024/03/11 11:46:48;;;;;;;11.60;3.17;;;;;;;;;;4983546;28;86874;-49
2024/03/11 11:49:14;;;;;;;26.48;5.90;;;;;;;;;;4983870;28;86791;-47
2024/03/11 11:51:40;;;;;;;16.80;4.13;;;;;;;;;;4982798;28;87000;-47
2024/03/11 11:54:16;;;;;;;13.07;4.28;;;;;;;;;;4982905;28;87155;-46
2024/03/11 11:56:41;;;;;;;30.92;5.43;;;;;;;;;;4983435;28;86063;-48
2024/03/11 11:59:08;;;;;;;23.57;5.07;;;;;;;;;;4983107;28;87231;-47
2024/03/11 12:01:45;;;;;;;16.10;3.53;;;;;;;;;;4982272;28;87311;-47
2024/03/11 12:04:10;;;;;;;23.60;2.85;;;;;;;;;;4985002;28;88011;-46
2024/03/11 12:06:37;;;;;;;20.00;3.60;;;;;;;;;;4984674;28;87018;-47
2024/03/11 12:09:12;;;;;;;17.27;5.72;;;;;;;;;;4984004;28;87256;-46
2024/03/11 12:11:41;;;;;;;14.30;4.28;;;;;;;;;;4983221;28;86917;-46
2024/03/11 12:14:09;;;;;;;17.35;3.63;;;;;;;;;;4983252;28;86878;-47
2024/03/11 12:16:34;;;;;;;13.50;4.28;;;;;;;;;;4983120;28;87623;-47
2024/03/11 12:19:05;;;;;;;21.33;3.47;;;;;;;;;;4984244;28;86825;-51
2024/03/11 12:21:31;;;;;;;9.95;2.95;;;;;;;;;;4982860;28;86197;-47
2024/03/11 12:23:57;;;;;;;24.23;3.20;;;;;;;;;;4983168;28;87106;-47
2024/03/11 12:26:23;;;;;;;17.80;4.03;;;;;;;;;;4986395;28;86950;-47
2024/03/11 12:29:04;;;;;;;15.98;3.63;;;;;;;;;;4982321;28;88575;-50
2024/03/11 12:31:34;;;;;;;21.67;3.40;;;;;;;;;;4983418;28;86803;-47
2024/03/11 12:34:08;;;;;;;19.90;4.15;;;;;;;;;;4983185;28;87235;-48
2024/03/11 12:36:40;;;;;;;10.00;2.50;;;;;;;;;;4983100;28;86440;-49
2024/03/11 12:41:55;;;;;;;19.67;2.63;;;;;;;;;;4982648;28;86954;-47
2024/03/11 12:44:20;;;;;;;13.00;3.70;;;;;;;;;;4981593;28;88114;-49
2024/03/11 12:46:50;;;;;;;23.73;2.73;;;;;;;;;;4983790;28;86011;-48
2024/03/11 12:49:15;;;;;;;19.58;2.83;;;;;;;;;;4985594;28;86778;-47
2024/03/11 12:51:41;;;;;;;13.27;3.10;;;;;;;;;;4981328;28;87017;-47
2024/03/11 12:54:18;;;;;;;12.53;3.20;;;;;;;;;;4984866;28;87864;-47
2024/03/11 12:56:47;;;;;;;19.65;3.03;;;;;;;;;;4985730;28;87226;-50
2024/03/11 12:59:13;;;;;;;15.20;3.10;;;;;;;;;;4985564;28;86774;-46
2024/03/11 13:01:41;;;;;;;11.43;3.35;;;;;;;;;;4984327;28;86843;-47
2024/03/11 13:04:19;;;;;;;12.82;2.97;;;;;;;;;;4983476;28;89433;-46
2024/03/11 13:06:44;;;;;;;17.90;2.17;;;;;;;;;;4984344;28;87021;-46
2024/03/11 13:09:24;;;;;;;18.57;2.53;;;;;;;;;;4984432;28;86905;-47
2024/03/11 13:11:59;;;;;;;8.10;2.85;;;;;;;;;;4986874;28;86912;-48
2024/03/11 13:14:24;;;;;;;9.25;2.55;;;;;;;;;;4982946;28;88461;-47
2024/03/11 13:16:53;;;;;;;11.77;2.50;;;;;;;;;;4985125;28;87431;-46
2024/03/11 13:19:18;;;;;;;10.98;2.75;;;;;;;;;;4986370;28;88082;-47
2024/03/11 13:21:48;;;;;;;9.87;2.83;;;;;;;;;;4986203;28;87005;-50
2024/03/11 13:24:14;;;;;;;10.70;2.10;;;;;;;;;;4985073;28;87460;-46
2024/03/11 13:26:40;;;;;;;9.60;1.85;;;;;;;;;;4985176;28;86899;-46
2024/03/11 13:29:06;;;;;;;4.60;1.90;;;;;;;;;;4984211;28;86941;-47
2024/03/11 13:31:31;;;;;;;9.97;2.77;;;;;;;;;;4987711;28;87598;-47
2024/03/11 13:33:57;;;;;;;8.73;1.88;;;;;;;;;;4984701;28;87388;-47
2024/03/11 13:36:22;;;;;;;6.40;2.70;;;;;;;;;;4985904;28;86107;-46
2024/03/11 13:38:47;;;;;;;3.70;1.83;;;;;;;;;;4986862;28;86983;-49
2024/03/11 13:41:14;;;;;;;4.43;2.37;;;;;;;;;;4985655;28;89294;-49
2024/03/11 13:43:41;;;;;;;5.60;2.00;;;;;;;;;;4985690;28;87828;-47
2024/03/11 13:46:06;;;;;;;16.10;2.10;;;;;;;;;;4985614;28;86900;-48
2024/03/11 13:48:32;;;;;;;15.37;2.37;;;;;;;;;;4986227;28;87169;-58
2024/03/11 13:50:58;;;;;;;6.27;2.13;;;;;;;;;;4985799;28;86797;-45
2024/03/11 13:53:23;;;;;;;6.32;1.42;;;;;;;;;;4989424;28;86801;-44
2024/03/11 13:55:49;;;;;;;5.63;1.70;;;;;;;;;;4984896;28;87566;-45
2024/03/11 13:58:15;;;;;;;9.18;2.13;;;;;;;;;;4985057;28;86873;-46
2024/03/11 14:00:47;;;;;;;9.10;2.25;;;;;;;;;;4984020;28;85967;-47
2024/03/11 14:03:12;;;;;;;7.80;1.20;;;;;;;;;;4984775;28;87532;-48
2024/03/11 14:05:38;;;;;;;3.13;1.40;;;;;;;;;;4983584;28;87388;-46
2024/03/11 14:08:04;;;;;;;6.10;1.73;;;;;;;;;;4984543;28;87877;-49
2024/03/11 14:10:31;;;;;;;12.27;2.25;;;;;;;;;;4984094;28;86774;-47
2024/03/11 14:12:56;;;;;;;9.03;2.20;;;;;;;;;;4983810;28;86956;-48
2024/03/11 14:15:24;;;;;;;5.07;1.57;;;;;;;;;;4986703;28;87130;-47
2024/03/11 14:17:49;;;;;;;7.90;1.98;;;;;;;;;;4984553;28;86959;-49
2024/03/11 14:20:30;;;;;;;10.23;1.60;;;;;;;;;;4984578;28;87111;-49
2024/03/11 14:22:55;;;;;;;3.65;1.58;;;;;;;;;;4984650;28;87576;-47
2024/03/11 14:25:20;;;;;;;3.67;1.10;;;;;;;;;;4985484;28;86044;-48
2024/03/11 14:27:49;;;;;;;5.27;1.30;;;;;;;;;;4985040;28;86834;-48
2024/03/11 14:30:16;;;;;;;5.18;1.45;;;;;;;;;;4983386;28;86721;-48
2024/03/11 14:32:42;;;;;;;7.70;2.05;;;;;;;;;;4983448;28;88126;-48
2024/03/11 14:35:08;;;;;;;4.43;1.23;;;;;;;;;;4983675;28;88407;-48
2024/03/11 14:37:33;;;;;;;11.20;1.70;;;;;;;;;;4986187;28;87025;-48
2024/03/11 14:39:59;;;;;;;9.67;1.37;;;;;;;;;;4983730;28;88878;-48
2024/03/11 14:42:25;;;;;;;4.35;1.55;;;;;;;;;;4985113;28;87343;-48